Time;durP1;ratioP1;P1;durP2;ratioP2;P2;SDS_P1;SDS_P2;PMS_P1;PMS_P2;Temp;Humidity;BMP_temperature;BMP_pressure;BME280_temperature;BME280_humidity;BME280_pressure;Samples;Min_cycle;Max_cycle;Signal;HPM_P1;HPM_P2
2022/05/07 00:02:02;;;;;;;13.13;6.80;;;;;;;13.26;94.41;96784.88;5078706;28;20211;-70
2022/05/07 00:04:28;;;;;;;14.40;6.47;;;;;;;13.28;94.25;96783.72;5076838;28;20211;-71
2022/05/07 00:06:55;;;;;;;11.87;7.07;;;;;;;13.19;94.06;96771.56;5078501;28;20204;-70
2022/05/07 00:09:23;;;;;;;11.95;6.25;;;;;;;13.07;94.15;96777.44;5077974;28;20235;-69
2022/05/07 00:11:50;;;;;;;13.97;6.23;;;;;;;12.92;94.74;96781.91;5078074;28;20244;-70
2022/05/07 00:14:16;;;;;;;11.07;6.10;;;;;;;13.05;94.21;96771.53;5077352;28;20208;-70
2022/05/07 00:19:28;;;;;;;12.17;7.30;;;;;;;13.10;94.52;96767.34;5073477;28;20203;-71
2022/05/07 00:21:55;;;;;;;12.67;7.13;;;;;;;13.00;95.05;96764.13;5077940;28;20742;-69
2022/05/07 00:24:21;;;;;;;13.63;7.20;;;;;;;13.01;95.00;96767.59;5077000;28;20211;-70
2022/05/07 00:26:48;;;;;;;17.88;7.10;;;;;;;13.09;94.58;96759.59;5077724;28;20196;-69
2022/05/07 00:29:14;;;;;;;13.93;7.23;;;;;;;12.81;95.30;96761.94;5077396;28;20226;-70
2022/05/07 00:31:40;;;;;;;13.68;5.78;;;;;;;12.89;93.35;96759.28;5077702;28;20231;-69
2022/05/07 00:34:08;;;;;;;12.40;5.72;;;;;;;13.07;93.48;96751.00;5076630;28;20199;-69
2022/05/07 00:36:35;;;;;;;14.35;6.35;;;;;;;13.00;92.25;96755.38;5077686;28;20200;-70
2022/05/07 00:39:01;;;;;;;13.27;6.60;;;;;;;13.05;92.78;96756.47;5077325;28;20196;-69
2022/05/07 00:41:28;;;;;;;11.85;6.18;;;;;;;12.69;93.13;96757.25;5077642;28;20227;-70
2022/05/07 00:43:55;;;;;;;14.30;6.57;;;;;;;12.88;93.17;96757.63;5076703;28;20207;-70
2022/05/07 00:46:25;;;;;;;13.33;7.53;;;;;;;12.92;94.13;96753.63;5077476;28;21133;-70
2022/05/07 00:48:52;;;;;;;13.77;6.87;;;;;;;12.78;94.67;96758.84;5077240;28;20223;-70
2022/05/07 00:51:36;;;;;;;14.10;7.43;;;;;;;13.03;93.56;96752.34;5076851;28;20219;-70
2022/05/07 00:54:04;;;;;;;13.60;6.43;;;;;;;12.61;94.20;96745.91;5077284;28;20200;-70
2022/05/07 00:56:31;;;;;;;12.67;6.63;;;;;;;12.63;93.00;96747.38;5077407;28;20592;-70
2022/05/07 00:58:59;;;;;;;12.03;6.40;;;;;;;12.30;95.76;96755.72;5075583;28;20239;-69
2022/05/07 01:01:26;;;;;;;13.30;6.60;;;;;;;12.34;95.72;96747.25;5077074;28;20335;-70
2022/05/07 01:03:53;;;;;;;11.63;6.20;;;;;;;12.52;93.50;96742.50;5076748;28;20276;-69
2022/05/07 01:06:21;;;;;;;9.57;5.93;;;;;;;12.71;91.97;96734.09;5077162;28;20208;-70
2022/05/07 01:08:49;;;;;;;11.00;6.00;;;;;;;12.40;93.41;96743.91;5076694;28;21000;-69
2022/05/07 01:11:17;;;;;;;18.90;7.30;;;;;;;12.50;94.42;96747.16;5076786;28;20219;-69
2022/05/07 01:13:45;;;;;;;12.77;6.90;;;;;;;12.42;94.96;96739.28;5077273;28;20214;-70
2022/05/07 01:16:12;;;;;;;13.37;6.67;;;;;;;12.42;94.31;96736.66;5076830;28;20208;-70
2022/05/07 01:18:40;;;;;;;8.13;5.47;;;;;;;12.39;92.78;96738.81;5075233;28;20284;-69
2022/05/07 01:21:12;;;;;;;8.73;5.30;;;;;;;12.66;91.35;96728.50;5076642;28;20250;-70
2022/05/07 01:23:41;;;;;;;9.63;5.40;;;;;;;12.62;91.71;96735.16;5076570;28;20200;-69
2022/05/07 01:26:08;;;;;;;11.00;5.73;;;;;;;12.51;92.02;96738.22;5076472;28;20231;-69
2022/05/07 01:28:35;;;;;;;10.37;6.10;;;;;;;12.19;93.93;96738.47;5077354;28;20599;-70
2022/05/07 01:31:01;;;;;;;10.47;6.23;;;;;;;12.03;95.67;96737.72;5077444;28;20231;-69
2022/05/07 01:33:28;;;;;;;12.37;6.57;;;;;;;12.20;95.16;96734.78;5080198;28;20203;-69
2022/05/07 01:35:54;;;;;;;9.77;5.50;;;;;;;11.83;93.10;96735.69;5080929;28;20206;-70
2022/05/07 01:38:22;;;;;;;9.07;5.47;;;;;;;12.20;92.70;96733.97;5081395;28;20214;-70
2022/05/07 01:40:49;;;;;;;12.10;6.37;;;;;;;12.16;92.86;96737.16;5080411;28;20231;-70
2022/05/07 01:43:15;;;;;;;11.93;6.00;;;;;;;12.28;92.38;96736.56;5080188;28;20206;-70
2022/05/07 01:45:41;;;;;;;14.77;5.97;;;;;;;12.13;92.28;96737.50;5081482;28;20199;-70
2022/05/07 01:48:10;;;;;;;11.10;6.40;;;;;;;12.25;92.02;96732.44;5080774;28;20234;-69
2022/05/07 01:50:38;;;;;;;10.70;6.47;;;;;;;12.15;92.03;96728.41;5080989;28;20888;-70
2022/05/07 01:53:05;;;;;;;17.37;6.43;;;;;;;12.22;91.31;96727.53;5079679;28;20204;-70
2022/05/07 01:55:34;;;;;;;12.10;6.20;;;;;;;12.26;91.57;96728.00;5080952;28;20204;-69
2022/05/07 01:58:01;;;;;;;9.67;5.80;;;;;;;12.11;91.81;96731.56;5080134;28;20200;-69
2022/05/07 02:00:29;;;;;;;11.40;6.07;;;;;;;12.14;92.08;96728.56;5081008;28;20589;-70
2022/05/07 02:02:56;;;;;;;13.13;6.10;;;;;;;11.89;94.33;96727.06;5079516;28;20694;-70
2022/05/07 02:05:23;;;;;;;11.63;6.70;;;;;;;11.81;94.29;96732.38;5079735;28;20204;-70
2022/05/07 02:07:50;;;;;;;9.30;6.23;;;;;;;12.01;92.78;96723.03;5080220;28;20204;-69
2022/05/07 02:10:16;;;;;;;9.13;5.37;;;;;;;12.05;91.73;96730.44;5081051;28;20239;-70
2022/05/07 02:12:44;;;;;;;13.70;7.17;;;;;;;12.03;94.13;96726.31;5079052;28;20210;-70
2022/05/07 02:15:11;;;;;;;13.97;7.17;;;;;;;11.90;94.20;96728.69;5079706;28;20208;-70
2022/05/07 02:17:37;;;;;;;12.87;7.10;;;;;;;11.85;93.92;96723.97;5080612;28;20200;-70
2022/05/07 02:20:05;;;;;;;12.33;6.47;;;;;;;11.69;93.45;96723.22;5077989;28;20707;-70
2022/05/07 02:22:32;;;;;;;10.80;6.10;;;;;;;11.59;93.21;96722.59;5078834;28;20200;-69
2022/05/07 02:24:58;;;;;;;9.67;5.87;;;;;;;11.67;93.11;96720.75;5080161;28;20219;-69
2022/05/07 02:27:25;;;;;;;10.47;6.47;;;;;;;11.72;93.44;96718.41;5076670;28;20238;-69
2022/05/07 02:29:53;;;;;;;8.20;5.27;;;;;;;11.95;91.57;96713.16;5079499;28;20219;-70
2022/05/07 02:32:19;;;;;;;11.67;6.83;;;;;;;11.80;90.11;96714.88;5079168;28;20219;-69
2022/05/07 02:34:46;;;;;;;11.37;6.03;;;;;;;11.75;91.37;96717.25;5079999;28;20203;-70
2022/05/07 02:37:13;;;;;;;12.37;6.17;;;;;;;11.57;92.61;96720.13;5079774;28;20199;-70
2022/05/07 02:39:40;;;;;;;12.03;6.50;;;;;;;11.58;92.21;96720.94;5079077;28;20199;-69
2022/05/07 02:44:52;;;;;;;11.90;6.83;;;;;;;11.56;94.66;96707.91;5079221;28;20234;-70
2022/05/07 02:47:19;;;;;;;11.77;6.13;;;;;;;11.42;94.54;96712.22;5079898;28;20204;-70
2022/05/07 02:49:45;;;;;;;13.67;6.17;;;;;;;11.02;94.74;96710.53;5079418;28;20224;-70
2022/05/07 02:52:12;;;;;;;11.60;6.70;;;;;;;10.93;95.68;96701.00;5079721;28;20215;-70
2022/05/07 02:54:38;;;;;;;14.30;6.57;;;;;;;10.74;95.39;96702.34;5079031;28;20664;-70
2022/05/07 02:57:05;;;;;;;11.00;6.17;;;;;;;11.17;94.73;96705.38;5079388;28;20223;-70
2022/05/07 02:59:31;;;;;;;13.47;7.07;;;;;;;11.13;94.53;96707.53;5078847;28;20211;-69
2022/05/07 03:01:59;;;;;;;9.50;5.60;;;;;;;11.57;91.87;96714.03;5079356;28;20231;-70
2022/05/07 03:04:26;;;;;;;11.73;6.23;;;;;;;11.41;92.00;96714.03;5078576;28;20704;-70
2022/05/07 03:06:52;;;;;;;10.63;6.13;;;;;;;11.41;91.02;96703.50;5079886;28;20200;-70
2022/05/07 03:09:19;;;;;;;10.57;5.57;;;;;;;11.40;90.80;96712.41;5079466;28;20220;-70
2022/05/07 03:11:45;;;;;;;11.17;6.83;;;;;;;11.30;93.17;96711.78;5078582;28;20220;-68
2022/05/07 03:14:12;;;;;;;12.57;7.23;;;;;;;10.77;96.51;96712.53;5078798;28;20204;-69
2022/05/07 03:16:39;;;;;;;11.13;6.30;;;;;;;10.59;95.46;96714.53;5079202;28;20200;-70
2022/05/07 03:19:07;;;;;;;13.47;7.10;;;;;;;10.74;96.33;96712.88;5075595;28;20232;-70
2022/05/07 03:21:33;;;;;;;11.40;6.70;;;;;;;10.76;95.17;96714.38;5079041;28;20216;-70
2022/05/07 03:24:00;;;;;;;12.00;6.87;;;;;;;10.65;97.62;96713.88;5078863;28;20593;-70
2022/05/07 03:26:26;;;;;;;18.23;7.13;;;;;;;10.65;95.78;96708.63;5078253;28;20580;-69
2022/05/07 03:28:53;;;;;;;10.37;6.00;;;;;;;10.43;95.98;96709.28;5078837;28;20219;-69
2022/05/07 03:31:19;;;;;;;12.50;6.70;;;;;;;10.51;95.53;96719.81;5079312;28;20230;-70
2022/05/07 03:33:46;;;;;;;11.00;6.20;;;;;;;10.45;94.84;96721.31;5077450;28;21056;-71
2022/05/07 03:36:15;;;;;;;8.53;5.50;;;;;;;10.54;94.38;96717.69;5078723;28;20208;-69
2022/05/07 03:38:42;;;;;;;11.80;6.20;;;;;;;10.89;94.23;96725.22;5078692;28;20639;-69
2022/05/07 03:41:09;;;;;;;11.73;6.53;;;;;;;10.44;96.76;96722.28;5078538;28;20234;-70
2022/05/07 03:43:36;;;;;;;14.53;7.10;;;;;;;10.43;97.70;96717.19;5077548;28;20204;-68
2022/05/07 03:46:03;;;;;;;14.33;6.90;;;;;;;10.42;97.64;96724.28;5078235;28;20302;-69
2022/05/07 03:48:30;;;;;;;10.43;6.07;;;;;;;10.93;93.30;96723.09;5078518;28;20231;-70
2022/05/07 03:50:56;;;;;;;10.50;5.60;;;;;;;10.56;93.46;96720.97;5077817;28;20238;-70
2022/05/07 03:53:29;;;;;;;8.93;5.53;;;;;;;10.46;94.50;96720.31;5078233;28;20210;-70
2022/05/07 03:55:56;;;;;;;9.67;4.50;;;;;;;10.27;93.78;96716.34;5078412;28;20231;-69
2022/05/07 03:58:22;;;;;;;8.80;5.10;;;;;;;10.36;93.70;96722.28;5078245;28;20203;-70
2022/05/07 04:00:50;;;;;;;10.57;5.57;;;;;;;10.22;95.80;96719.50;5077877;28;20220;-69
2022/05/07 04:03:16;;;;;;;9.37;5.27;;;;;;;10.26;96.43;96722.59;5077891;28;20227;-70
2022/05/07 04:05:43;;;;;;;8.17;5.07;;;;;;;10.34;94.50;96720.81;5077892;28;20244;-70
2022/05/07 04:08:10;;;;;;;8.07;5.23;;;;;;;10.40;94.33;96720.16;5078014;28;20211;-70
2022/05/07 04:10:38;;;;;;;7.43;4.80;;;;;;;10.46;92.07;96724.75;5077388;28;20235;-68
2022/05/07 04:13:04;;;;;;;13.77;5.73;;;;;;;10.40;95.27;96720.16;5077384;28;20226;-69
2022/05/07 04:15:31;;;;;;;10.63;6.00;;;;;;;10.47;97.06;96726.41;5077546;28;20754;-70
2022/05/07 04:17:58;;;;;;;14.07;6.60;;;;;;;10.45;97.50;96729.22;5075653;28;20297;-69
2022/05/07 04:20:25;;;;;;;11.70;6.17;;;;;;;10.20;97.70;96731.19;5078353;28;20220;-70
2022/05/07 04:22:51;;;;;;;10.13;5.20;;;;;;;10.22;97.07;96730.03;5077080;28;20207;-70
2022/05/07 04:25:18;;;;;;;13.30;7.60;;;;;;;10.38;99.50;96728.19;5078189;28;20210;-70
2022/05/07 04:27:46;;;;;;;14.63;5.70;;;;;;;10.30;98.95;96734.44;5077502;28;20203;-70
2022/05/07 04:30:13;;;;;;;10.53;5.77;;;;;;;10.51;96.11;96735.63;5077619;28;20712;-71
2022/05/07 04:32:39;;;;;;;10.23;5.83;;;;;;;10.36;95.46;96745.16;5076493;28;20207;-70
2022/05/07 04:35:06;;;;;;;8.63;5.13;;;;;;;10.21;94.70;96746.81;5077449;28;20204;-70
2022/05/07 04:37:33;;;;;;;8.67;5.20;;;;;;;10.17;94.56;96739.38;5077649;28;20226;-69
2022/05/07 04:39:59;;;;;;;11.43;6.37;;;;;;;10.40;96.18;96739.41;5077442;28;20223;-70
2022/05/07 04:42:26;;;;;;;12.30;6.70;;;;;;;10.37;98.36;96736.28;5076313;28;20214;-70
2022/05/07 04:44:54;;;;;;;10.60;6.80;;;;;;;10.59;98.34;96735.63;5078081;28;20676;-70
2022/05/07 04:47:20;;;;;;;11.30;6.43;;;;;;;10.55;98.27;96731.66;5077566;28;20204;-69
2022/05/07 04:49:46;;;;;;;10.87;6.33;;;;;;;10.55;98.50;96736.94;5077142;28;20222;-69
2022/05/07 04:52:13;;;;;;;12.23;6.70;;;;;;;11.48;93.83;96744.06;5076720;28;20212;-70
2022/05/07 04:54:41;;;;;;;13.27;6.80;;;;;;;11.67;92.76;96735.75;5077561;28;20210;-70
2022/05/07 04:57:08;;;;;;;11.90;6.37;;;;;;;11.12;95.37;96726.16;5077034;28;20207;-69
2022/05/07 04:59:35;;;;;;;10.87;6.77;;;;;;;11.05;96.53;96733.94;5077668;28;20211;-70
2022/05/07 05:02:03;;;;;;;16.58;9.65;;;;;;;10.90;100.00;96736.63;5076036;28;20441;-69
2022/05/07 05:04:29;;;;;;;14.30;7.57;;;;;;;11.15;98.38;96739.00;5076430;28;20203;-69
2022/05/07 05:06:56;;;;;;;17.40;8.20;;;;;;;11.20;99.09;96741.97;5076988;28;20204;-69
2022/05/07 05:09:22;;;;;;;15.50;8.33;;;;;;;11.32;99.19;96744.09;5077174;28;20318;-68
2022/05/07 05:11:48;;;;;;;15.77;8.80;;;;;;;11.36;99.40;96742.75;5077015;28;20227;-68
2022/05/07 05:16:59;;;;;;;17.70;8.87;;;;;;;11.55;97.91;96740.56;5077137;28;20268;-69
2022/05/07 05:19:27;;;;;;;15.93;9.37;;;;;;;11.84;97.17;96747.91;5074518;28;20676;-68
2022/05/07 05:21:54;;;;;;;16.60;9.43;;;;;;;11.72;98.19;96747.47;5077416;28;20219;-69
2022/05/07 05:24:20;;;;;;;18.03;8.70;;;;;;;11.84;98.86;96753.19;5076247;28;20590;-69
2022/05/07 05:26:46;;;;;;;19.43;8.97;;;;;;;11.98;98.84;96753.25;5077109;28;20196;-69
2022/05/07 05:29:13;;;;;;;15.07;8.63;;;;;;;12.11;97.39;96752.72;5076522;28;20219;-69
2022/05/07 05:31:39;;;;;;;15.60;9.30;;;;;;;12.08;94.56;96750.41;5076878;28;20227;-69
2022/05/07 05:34:06;;;;;;;18.23;8.97;;;;;;;12.32;95.31;96751.91;5076552;28;20215;-69
2022/05/07 05:36:34;;;;;;;22.73;9.73;;;;;;;12.50;95.33;96757.72;5076694;28;20200;-69
2022/05/07 05:39:00;;;;;;;17.60;9.23;;;;;;;12.51;94.94;96755.91;5076592;28;21516;-68
2022/05/07 05:41:27;;;;;;;20.80;9.50;;;;;;;12.62;94.36;96756.31;5077550;28;20719;-69
2022/05/07 05:43:53;;;;;;;19.63;9.90;;;;;;;12.75;94.53;96751.25;5075269;28;20215;-69
2022/05/07 05:46:20;;;;;;;19.40;10.20;;;;;;;12.99;94.64;96756.38;5077570;28;20199;-69
2022/05/07 05:48:46;;;;;;;22.67;10.23;;;;;;;13.12;93.31;96754.75;5076376;28;20257;-69
2022/05/07 05:51:12;;;;;;;19.15;9.93;;;;;;;13.07;93.62;96754.47;5076426;28;20234;-69
2022/05/07 05:53:40;;;;;;;18.10;9.73;;;;;;;13.31;94.87;96756.88;5076272;28;20532;-69
2022/05/07 05:56:07;;;;;;;19.42;10.45;;;;;;;13.33;93.82;96760.16;5077157;28;20204;-69
2022/05/07 05:58:33;;;;;;;19.52;10.43;;;;;;;13.30;94.07;96765.84;5075914;28;20207;-69
2022/05/07 06:01:00;;;;;;;19.48;9.75;;;;;;;13.63;93.40;96765.31;5076687;28;20627;-69
2022/05/07 06:03:27;;;;;;;21.25;10.48;;;;;;;13.84;91.97;96762.72;5076546;28;20207;-69
2022/05/07 06:05:53;;;;;;;24.05;10.80;;;;;;;13.86;91.43;96766.03;5076158;28;20207;-69
2022/05/07 06:08:20;;;;;;;21.92;10.80;;;;;;;14.09;91.07;96761.44;5076611;28;20246;-69
2022/05/07 06:10:51;;;;;;;26.05;12.13;;;;;;;14.43;90.22;96753.69;5076646;28;20602;-69
2022/05/07 06:13:18;;;;;;;24.35;11.55;;;;;;;14.04;90.06;96763.81;5076093;28;21000;-68
2022/05/07 06:15:45;;;;;;;25.70;12.60;;;;;;;14.47;87.31;96755.75;5076118;28;20656;-69
2022/05/07 06:18:12;;;;;;;19.63;10.88;;;;;;;14.56;86.70;96764.41;5076944;28;20261;-69
2022/05/07 06:20:38;;;;;;;21.25;11.32;;;;;;;14.78;87.83;96759.75;5080370;28;20215;-69
2022/05/07 06:23:05;;;;;;;18.95;10.50;;;;;;;14.77;88.95;96751.97;5079292;28;20203;-69
2022/05/07 06:28:18;;;;;;;21.70;11.13;;;;;;;15.22;85.43;96764.84;5078810;28;20254;-70
2022/05/07 06:30:44;;;;;;;21.17;11.57;;;;;;;15.23;86.42;96759.34;5079365;28;20231;-70
2022/05/07 06:33:11;;;;;;;24.15;11.00;;;;;;;15.14;83.71;96757.81;5079034;28;20283;-69
2022/05/07 06:35:37;;;;;;;16.85;10.93;;;;;;;15.26;85.37;96766.91;5080137;28;20261;-69
2022/05/07 06:38:04;;;;;;;24.90;11.90;;;;;;;15.37;86.27;96763.75;5079732;28;20208;-70
2022/05/07 06:40:30;;;;;;;21.30;12.07;;;;;;;15.44;82.85;96768.09;5079200;28;21156;-70
2022/05/07 06:42:57;;;;;;;20.20;11.00;;;;;;;15.46;83.16;96774.00;5079150;28;20208;-70
2022/05/07 06:45:25;;;;;;;21.95;10.90;;;;;;;15.80;81.94;96773.22;5080070;28;20237;-69
2022/05/07 06:47:51;;;;;;;20.38;10.80;;;;;;;15.61;84.35;96769.44;5079705;28;20211;-70
2022/05/07 06:50:18;;;;;;;20.48;11.40;;;;;;;15.82;83.02;96771.19;5078936;28;20607;-69
2022/05/07 06:52:45;;;;;;;18.10;10.75;;;;;;;16.00;81.14;96773.13;5078731;28;20196;-69
2022/05/07 06:55:15;;;;;;;23.85;11.23;;;;;;;16.27;82.23;96766.94;5079828;28;20315;-69
2022/05/07 06:57:41;;;;;;;19.65;10.40;;;;;;;15.78;80.97;96765.44;5080036;28;20196;-69
2022/05/07 07:00:10;;;;;;;18.48;11.05;;;;;;;15.84;81.87;96765.47;5079296;28;21260;-70
2022/05/07 07:02:38;;;;;;;21.15;10.88;;;;;;;16.08;81.65;96767.63;5078461;28;20204;-70
2022/05/07 07:05:06;;;;;;;19.83;11.25;;;;;;;15.99;82.35;96766.16;5079406;28;20207;-69
2022/05/07 07:07:33;;;;;;;20.10;10.93;;;;;;;16.03;81.20;96771.91;5079352;28;20196;-70
2022/05/07 07:09:59;;;;;;;20.52;11.50;;;;;;;15.80;79.55;96767.91;5079022;28;20281;-70
2022/05/07 07:12:26;;;;;;;19.27;10.38;;;;;;;15.49;81.00;96772.81;5078075;28;20227;-69
2022/05/07 07:14:54;;;;;;;19.38;10.70;;;;;;;15.29;82.50;96771.88;5079815;28;20200;-69
2022/05/07 07:17:23;;;;;;;24.10;11.27;;;;;;;15.88;81.22;96768.56;5079319;28;20265;-69
2022/05/07 07:19:50;;;;;;;21.20;11.13;;;;;;;15.95;81.73;96772.91;5076944;28;20224;-69
2022/05/07 07:22:17;;;;;;;21.25;11.98;;;;;;;16.00;81.86;96773.13;5078691;28;20204;-69
2022/05/07 07:24:44;;;;;;;20.35;11.15;;;;;;;15.97;82.10;96775.34;5078462;28;20200;-69
2022/05/07 07:27:10;;;;;;;22.55;10.85;;;;;;;15.80;81.05;96778.56;5079582;28;20249;-69
2022/05/07 07:29:36;;;;;;;20.10;11.30;;;;;;;15.89;80.47;96781.66;5078051;28;20200;-69
2022/05/07 07:32:04;;;;;;;19.48;11.55;;;;;;;15.90;78.36;96772.66;5078404;28;21018;-69
2022/05/07 07:34:30;;;;;;;22.55;11.15;;;;;;;15.54;81.00;96773.88;5079140;28;20227;-69
2022/05/07 07:36:58;;;;;;;20.38;11.40;;;;;;;15.66;79.66;96771.50;5078133;28;20315;-69
2022/05/07 07:39:24;;;;;;;25.20;11.63;;;;;;;15.44;81.55;96770.75;5078688;28;20210;-69
2022/05/07 07:41:51;;;;;;;18.95;10.80;;;;;;;15.47;81.02;96772.19;5078624;28;20230;-69
2022/05/07 07:44:17;;;;;;;21.42;12.23;;;;;;;15.54;82.67;96773.06;5077922;28;20265;-69
2022/05/07 07:49:28;;;;;;;24.83;12.23;;;;;;;15.41;81.06;96768.50;5078475;28;20214;-69
2022/05/07 07:51:56;;;;;;;21.08;11.25;;;;;;;15.73;81.66;96772.34;5077632;28;20215;-69
2022/05/07 07:54:23;;;;;;;22.20;11.95;;;;;;;16.19;78.99;96775.06;5077657;28;20227;-70
2022/05/07 07:56:50;;;;;;;21.13;11.77;;;;;;;16.07;79.40;96776.63;5078329;28;20207;-70
2022/05/07 07:59:16;;;;;;;21.05;12.02;;;;;;;15.90;80.34;96774.50;5078302;28;20204;-69
2022/05/07 08:01:43;;;;;;;25.08;12.30;;;;;;;15.82;79.35;96772.00;5078129;28;20300;-70
2022/05/07 08:04:10;;;;;;;18.98;11.30;;;;;;;16.13;79.46;96773.19;5077727;28;20256;-70
2022/05/07 08:06:36;;;;;;;23.75;12.10;;;;;;;16.55;81.96;96770.31;5078427;28;20287;-69
2022/05/07 08:11:49;;;;;;;22.90;11.63;;;;;;;16.80;78.04;96780.19;5077709;28;20223;-70
2022/05/07 08:14:15;;;;;;;20.35;12.35;;;;;;;16.97;75.65;96780.59;5077567;28;20211;-69
2022/05/07 08:16:43;;;;;;;24.20;11.07;;;;;;;16.89;76.92;96770.16;5078112;28;20204;-69
2022/05/07 08:19:09;;;;;;;22.88;11.82;;;;;;;16.99;75.04;96775.91;5077816;28;20206;-70
2022/05/07 08:21:36;;;;;;;20.13;11.38;;;;;;;17.67;75.72;96768.31;5077701;28;20315;-69
2022/05/07 08:24:03;;;;;;;20.05;11.95;;;;;;;17.36;75.38;96770.81;5076779;28;20611;-70
2022/05/07 08:26:29;;;;;;;19.30;11.43;;;;;;;17.51;76.98;96774.91;5077572;28;20270;-69
2022/05/07 08:28:57;;;;;;;21.13;12.10;;;;;;;17.87;76.44;96775.25;5077679;28;20208;-70
2022/05/07 08:31:23;;;;;;;21.77;12.82;;;;;;;17.61;74.26;96782.50;5077124;28;20232;-70
2022/05/07 08:33:51;;;;;;;20.95;12.10;;;;;;;18.16;72.77;96770.25;5076687;28;20200;-70
2022/05/07 08:36:17;;;;;;;21.33;12.27;;;;;;;18.13;73.34;96773.34;5077978;28;20215;-69
2022/05/07 08:38:44;;;;;;;19.55;12.05;;;;;;;18.22;70.21;96765.97;5077198;28;20650;-70
2022/05/07 08:41:11;;;;;;;20.67;12.27;;;;;;;17.97;73.18;96775.66;5076340;28;20808;-70
2022/05/07 08:43:40;;;;;;;22.02;11.85;;;;;;;18.13;74.07;96772.53;5076993;28;20997;-70
2022/05/07 08:46:13;;;;;;;22.35;12.00;;;;;;;18.46;71.79;96777.56;5077507;28;20221;-69
2022/05/07 08:48:41;;;;;;;25.35;13.13;;;;;;;18.06;73.83;96775.22;5076727;28;20215;-70
2022/05/07 08:51:08;;;;;;;22.85;12.60;;;;;;;17.49;75.23;96776.97;5077249;28;20318;-70
2022/05/07 08:53:34;;;;;;;21.48;13.20;;;;;;;17.71;77.20;96776.53;5073604;28;20204;-70
2022/05/07 08:56:02;;;;;;;20.20;12.35;;;;;;;17.97;69.78;96771.16;5076543;28;20343;-70
2022/05/07 08:58:28;;;;;;;20.70;12.25;;;;;;;18.06;72.46;96769.91;5077247;28;20192;-70
2022/05/07 09:00:55;;;;;;;19.85;11.65;;;;;;;18.18;71.61;96765.56;5076557;28;20255;-70
2022/05/07 09:03:24;;;;;;;21.25;12.05;;;;;;;18.65;72.85;96765.16;5076707;28;20208;-70
2022/05/07 09:05:50;;;;;;;21.70;11.45;;;;;;;18.69;70.87;96767.16;5076669;28;20202;-70
2022/05/07 09:08:17;;;;;;;24.50;12.73;;;;;;;18.78;72.20;96763.22;5077507;28;20208;-70
2022/05/07 09:10:43;;;;;;;21.38;11.75;;;;;;;18.81;69.25;96757.44;5076570;28;20691;-70
2022/05/07 09:13:13;;;;;;;20.52;11.45;;;;;;;18.51;70.79;96767.06;5076419;28;20245;-70
2022/05/07 09:15:50;;;;;;;18.88;10.93;;;;;;;18.84;66.96;96770.38;5076944;28;20191;-70
2022/05/07 09:18:19;;;;;;;20.23;10.77;;;;;;;18.82;68.10;96760.94;5077505;28;20256;-70
2022/05/07 09:20:57;;;;;;;18.70;11.10;;;;;;;19.09;66.29;96764.06;5076775;28;20592;-70
2022/05/07 09:23:24;;;;;;;21.23;11.15;;;;;;;18.72;67.91;96761.38;5076605;28;20219;-71
2022/05/07 09:25:51;;;;;;;22.50;11.10;;;;;;;18.52;70.31;96760.69;5076388;28;20204;-73
2022/05/07 09:28:26;;;;;;;18.55;9.98;;;;;;;18.53;66.86;96762.34;5077831;28;20208;-72
2022/05/07 09:30:55;;;;;;;15.38;10.23;;;;;;;18.59;67.18;96761.47;5077448;28;20322;-73
2022/05/07 09:33:31;;;;;;;15.30;10.30;;;;;;;18.57;68.92;96776.06;5077113;28;20207;-71
2022/05/07 09:36:08;;;;;;;15.90;9.80;;;;;;;18.72;69.71;96758.72;5075903;28;20272;-71
2022/05/07 09:38:34;;;;;;;20.38;10.75;;;;;;;18.33;67.21;96759.97;5076766;28;20215;-71
2022/05/07 09:41:01;;;;;;;19.05;10.15;;;;;;;18.41;66.74;96756.00;5076335;28;20955;-71
2022/05/07 09:43:29;;;;;;;21.00;10.68;;;;;;;18.34;72.13;96760.59;5075766;28;20213;-71
2022/05/07 09:45:56;;;;;;;17.90;10.07;;;;;;;18.37;66.54;96760.16;5077061;28;20745;-71
2022/05/07 09:48:23;;;;;;;16.90;10.48;;;;;;;18.90;69.81;96752.66;5076974;28;20199;-71
2022/05/07 09:50:50;;;;;;;18.35;10.95;;;;;;;19.58;70.80;96742.69;5075940;28;20227;-71
2022/05/07 09:58:51;;;;;;;14.98;8.73;;;;;;;19.67;62.75;96736.81;5080478;28;20260;-72
2022/05/07 10:01:31;;;;;;;16.95;9.95;;;;;;;20.04;65.85;96743.88;5077451;28;20227;-71
2022/05/07 10:04:22;;;;;;;16.48;9.63;;;;;;;20.39;65.66;96750.22;5079985;28;20210;-71
2022/05/07 10:07:08;;;;;;;18.20;10.02;;;;;;;20.60;68.37;96731.81;5080238;28;20207;-72
2022/05/07 10:09:43;;;;;;;18.75;9.68;;;;;;;20.62;65.66;96742.31;5080408;28;20664;-72
2022/05/07 10:12:11;;;;;;;20.88;9.93;;;;;;;20.89;62.63;96726.47;5079602;28;20234;-72
2022/05/07 10:14:37;;;;;;;16.65;9.98;;;;;;;20.43;57.65;96735.34;5079984;28;20203;-71
2022/05/07 10:17:11;;;;;;;15.50;9.70;;;;;;;20.29;58.48;96739.25;5080176;28;20216;-71
2022/05/07 10:19:39;;;;;;;17.65;9.15;;;;;;;20.26;59.96;96731.66;5080193;28;20290;-71
2022/05/07 10:22:17;;;;;;;19.63;9.18;;;;;;;20.53;60.40;96727.59;5079370;28;20223;-70
2022/05/07 10:24:46;;;;;;;15.48;9.10;;;;;;;21.10;60.08;96719.78;5079992;28;20694;-70
2022/05/07 10:27:22;;;;;;;15.77;8.85;;;;;;;21.47;60.36;96717.50;5079956;28;20265;-71
2022/05/07 10:29:50;;;;;;;25.15;9.60;;;;;;;21.31;58.94;96721.91;5080090;28;20231;-71
2022/05/07 10:32:18;;;;;;;16.75;8.45;;;;;;;21.51;58.16;96723.22;5079843;28;20751;-71
2022/05/07 10:34:50;;;;;;;12.68;7.72;;;;;;;22.08;55.30;96710.59;5079846;28;20715;-71
2022/05/07 10:37:16;;;;;;;19.20;8.32;;;;;;;21.83;59.02;96701.19;5080105;28;21276;-71
2022/05/07 10:39:52;;;;;;;15.02;8.15;;;;;;;22.29;60.43;96709.19;5079453;28;20671;-71
2022/05/07 10:42:21;;;;;;;13.85;7.75;;;;;;;22.05;53.94;96715.63;5079283;28;20203;-71
2022/05/07 10:44:48;;;;;;;15.05;8.32;;;;;;;21.72;51.29;96703.88;5079943;28;20572;-71
2022/05/07 10:47:17;;;;;;;14.68;8.30;;;;;;;21.64;52.28;96715.78;5079692;28;20215;-71
2022/05/07 10:49:51;;;;;;;12.77;7.90;;;;;;;22.09;56.24;96701.47;5079960;28;20716;-71
2022/05/07 10:52:28;;;;;;;13.13;6.75;;;;;;;21.86;51.18;96716.81;5078329;28;20234;-71
2022/05/07 10:55:09;;;;;;;16.38;7.43;;;;;;;21.89;52.32;96710.16;5079184;28;20303;-71
2022/05/07 10:57:43;;;;;;;11.45;7.50;;;;;;;22.37;52.67;96698.88;5080277;28;20204;-71
2022/05/07 11:00:12;;;;;;;11.13;6.85;;;;;;;21.68;52.21;96703.53;5075926;28;20219;-71
2022/05/07 11:02:39;;;;;;;12.18;7.45;;;;;;;22.04;51.85;96701.38;5077884;28;20196;-71
2022/05/07 11:05:06;;;;;;;11.88;7.20;;;;;;;21.84;48.88;96710.03;5078735;28;20219;-71
2022/05/07 11:07:33;;;;;;;14.30;7.32;;;;;;;22.00;54.24;96699.41;5079918;28;20199;-71
2022/05/07 11:10:00;;;;;;;15.90;8.52;;;;;;;21.96;55.28;96700.94;5078456;28;20226;-71
2022/05/07 11:12:27;;;;;;;12.13;7.80;;;;;;;22.37;54.38;96692.69;5077267;28;20659;-71
2022/05/07 11:14:54;;;;;;;14.40;8.65;;;;;;;22.32;51.78;96689.91;5077417;28;20200;-70
2022/05/07 11:17:29;;;;;;;15.30;9.07;;;;;;;22.36;53.63;96681.13;5078276;28;20215;-71
2022/05/07 11:19:56;;;;;;;14.68;8.13;;;;;;;22.27;51.63;96687.91;5076645;28;20306;-71
2022/05/07 11:22:30;;;;;;;12.13;7.78;;;;;;;22.64;52.08;96688.38;5078073;28;20200;-71
2022/05/07 11:24:58;;;;;;;14.13;8.02;;;;;;;22.32;55.32;96676.47;5077991;28;20212;-70
2022/05/07 11:27:32;;;;;;;13.23;7.72;;;;;;;21.30;51.18;96678.19;5078688;28;20211;-71
2022/05/07 11:30:01;;;;;;;15.15;8.43;;;;;;;21.42;53.96;96675.53;5078053;28;20775;-72
2022/05/07 11:32:38;;;;;;;13.02;8.50;;;;;;;21.86;55.40;96676.56;5076668;28;20232;-71
2022/05/07 11:35:05;;;;;;;17.08;8.35;;;;;;;21.78;53.93;96676.94;5077786;28;20743;-71
2022/05/07 11:37:39;;;;;;;16.23;8.05;;;;;;;21.38;52.25;96680.53;5078261;28;20258;-71
2022/05/07 11:40:07;;;;;;;12.75;7.70;;;;;;;20.19;54.56;96680.09;5077442;28;20318;-71
2022/05/07 11:42:34;;;;;;;15.05;8.13;;;;;;;20.52;56.24;96683.13;5077262;28;20203;-72
2022/05/07 11:47:53;;;;;;;13.20;8.32;;;;;;;20.78;56.40;96672.88;5077390;28;20207;-70
2022/05/07 11:50:21;;;;;;;12.55;7.93;;;;;;;20.33;60.59;96676.19;5077185;28;20611;-72
2022/05/07 11:52:48;;;;;;;16.00;8.18;;;;;;;20.16;58.66;96685.06;5077208;28;20320;-71